Mahres, Tunisia
Current Conditions -  °F | °C
As of 8:00 PM on Thursday 27 Nov 2014 (Local Time) from DTTX Reporting Station
Clear Clear  
Wind Chill: 63°   Ceiling: Unl
Heat Index: 63°   Visibility: 6mi
Dew Point: 59°   Wind: 0mph
Humidity: 88%   Direction: NA
Pressure: 29.8"   Gusts: NA
Location:  34.53°N, 10.5°E
Report Text: DTTX 271900Z 00000KT CAVOK 17/15 Q1009 NOSIG
Loading
Personal Weather Stations






























Interactive Weather Map New forecast layout! Learn more

10-Day Weather Forecast

Advertisements
Track Severe Weather on mobile